UNNT/OVB METAR and TAF weather

Enter ICAO airport designator
Station Type Date Time Source
UNNT METAR 2019/08/24 07:00 UTC NOAA

UNNT 240700Z 28006MPS CAVOK 24/08 Q1015 R25/090070 R16/090070 NOSIG RMK QFE751/1002


Station Type Date Time Source
UNNT Decoded METAR 2019/08/24 07:00 UTC NOAA

Station name not available
Aug 24, 2019 - 03:00 AM EDT / 2019.08.24 0700 UTC
Wind: from the W (280 degrees) at 13 MPH (12 KT):0
Visibility: greater than 7 mile(s):0
Temperature: 75 F (24 C)
Dew Point: 46 F (8 C)
Relative Humidity: 35%
Pressure (altimeter): 29.97 in. Hg (1015 hPa)
ob: UNNT 240700Z 28006MPS CAVOK 24/08 Q1015 R25/090070 R16/090070 NOSIG RMK QFE751/1002
cycle: 7

Station Type Date Time Source
UNNT TAF 2019/08/24 06:21 UTC NOAA

TAF UNNT 240500Z 2406/2506 27005G12MPS 9999 SCT040CB
BECMG 2410/2413 20005G12MPS
TEMPO 2415/2501 -SHRA
BECMG 2420/2423 28003G10MPS

Example: see airport list